sensor_id;sensor_type;location;lat;lon;timestamp;pressure;altitude;pressure_sealevel;temperature;humidity
50268;BME280;36153;50.960;6.220;2023-02-16T00:02:57;101494.31;;;9.76;52.31
50268;BME280;36153;50.960;6.220;2023-02-16T00:05:59;101484.22;;;9.85;51.97
50268;BME280;36153;50.960;6.220;2023-02-16T00:09:01;101485.81;;;9.82;51.96
50268;BME280;36153;50.960;6.220;2023-02-16T00:12:04;101485.53;;;9.72;52.20
50268;BME280;36153;50.960;6.220;2023-02-16T00:15:27;101487.97;;;9.66;52.18
50268;BME280;36153;50.960;6.220;2023-02-16T00:18:29;101491.28;;;9.62;52.42
50268;BME280;36153;50.960;6.220;2023-02-16T00:21:30;101492.00;;;9.56;52.38
50268;BME280;36153;50.960;6.220;2023-02-16T00:24:32;101487.47;;;9.51;52.62
50268;BME280;36153;50.960;6.220;2023-02-16T00:27:34;101478.03;;;9.54;52.53
50268;BME280;36153;50.960;6.220;2023-02-16T00:30:36;101486.69;;;9.53;52.61
50268;BME280;36153;50.960;6.220;2023-02-16T00:33:37;101469.84;;;9.42;52.51
50268;BME280;36153;50.960;6.220;2023-02-16T00:36:38;101472.00;;;9.28;52.71
50268;BME280;36153;50.960;6.220;2023-02-16T00:39:40;101472.19;;;9.33;52.68
50268;BME280;36153;50.960;6.220;2023-02-16T00:42:43;101477.84;;;9.21;52.92
50268;BME280;36153;50.960;6.220;2023-02-16T00:45:44;101475.00;;;9.13;53.19
50268;BME280;36153;50.960;6.220;2023-02-16T00:48:45;101472.66;;;9.21;53.10
50268;BME280;36153;50.960;6.220;2023-02-16T00:51:46;101473.59;;;9.23;53.18
50268;BME280;36153;50.960;6.220;2023-02-16T00:54:46;101458.25;;;9.31;53.06
50268;BME280;36153;50.960;6.220;2023-02-16T01:00:57;101466.88;;;9.30;52.75
50268;BME280;36153;50.960;6.220;2023-02-16T01:04:02;101461.06;;;9.37;52.69
50268;BME280;36153;50.960;6.220;2023-02-16T01:07:13;101453.16;;;9.34;52.62
50268;BME280;36153;50.960;6.220;2023-02-16T01:10:35;101453.00;;;9.29;52.47
50268;BME280;36153;50.960;6.220;2023-02-16T01:14:10;101455.59;;;9.29;52.58
50268;BME280;36153;50.960;6.220;2023-02-16T01:17:11;101450.41;;;9.29;52.50
50268;BME280;36153;50.960;6.220;2023-02-16T01:20:17;101448.84;;;9.34;52.53
50268;BME280;36153;50.960;6.220;2023-02-16T01:23:17;101454.03;;;9.34;52.56
50268;BME280;36153;50.960;6.220;2023-02-16T01:26:18;101459.41;;;9.40;52.16
50268;BME280;36153;50.960;6.220;2023-02-16T01:29:20;101448.94;;;9.37;52.05
50268;BME280;36153;50.960;6.220;2023-02-16T01:32:20;101452.09;;;9.27;52.24
50268;BME280;36153;50.960;6.220;2023-02-16T01:35:23;101449.97;;;9.15;52.24
50268;BME280;36153;50.960;6.220;2023-02-16T01:38:27;101444.94;;;9.20;52.45
50268;BME280;36153;50.960;6.220;2023-02-16T01:44:57;101438.19;;;9.27;52.19
50268;BME280;36153;50.960;6.220;2023-02-16T01:48:04;101440.56;;;9.19;52.29
50268;BME280;36153;50.960;6.220;2023-02-16T01:54:37;101431.09;;;9.21;52.14
50268;BME280;36153;50.960;6.220;2023-02-16T01:58:27;101439.38;;;9.09;52.28
50268;BME280;36153;50.960;6.220;2023-02-16T02:01:36;101433.81;;;8.98;52.29
50268;BME280;36153;50.960;6.220;2023-02-16T02:04:53;101435.97;;;8.84;52.58
50268;BME280;36153;50.960;6.220;2023-02-16T02:11:26;101433.00;;;8.99;52.85
50268;BME280;36153;50.960;6.220;2023-02-16T02:14:38;101427.25;;;9.10;52.88
50268;BME280;36153;50.960;6.220;2023-02-16T02:17:38;101430.56;;;9.31;52.28
50268;BME280;36153;50.960;6.220;2023-02-16T02:21:03;101424.72;;;9.38;52.11
50268;BME280;36153;50.960;6.220;2023-02-16T02:24:49;101415.97;;;9.36;51.86
50268;BME280;36153;50.960;6.220;2023-02-16T02:28:09;101419.66;;;9.43;52.04
50268;BME280;36153;50.960;6.220;2023-02-16T02:31:27;101418.13;;;9.50;51.74
50268;BME280;36153;50.960;6.220;2023-02-16T02:34:59;101423.41;;;9.53;51.80
50268;BME280;36153;50.960;6.220;2023-02-16T02:41:52;101408.47;;;9.46;52.11
50268;BME280;36153;50.960;6.220;2023-02-16T02:45:16;101402.53;;;9.50;51.98
50268;BME280;36153;50.960;6.220;2023-02-16T02:48:17;101399.66;;;9.40;51.97
50268;BME280;36153;50.960;6.220;2023-02-16T02:51:18;101393.53;;;9.38;52.15
50268;BME280;36153;50.960;6.220;2023-02-16T02:54:35;101395.47;;;9.46;51.74
50268;BME280;36153;50.960;6.220;2023-02-16T02:57:56;101387.78;;;9.49;52.76
50268;BME280;36153;50.960;6.220;2023-02-16T03:01:17;101384.06;;;9.40;52.45
50268;BME280;36153;50.960;6.220;2023-02-16T03:04:20;101382.59;;;9.20;53.01
50268;BME280;36153;50.960;6.220;2023-02-16T03:07:23;101375.88;;;8.99;53.52
50268;BME280;36153;50.960;6.220;2023-02-16T03:10:48;101379.84;;;8.88;53.81
50268;BME280;36153;50.960;6.220;2023-02-16T03:14:53;101372.28;;;8.68;54.27
50268;BME280;36153;50.960;6.220;2023-02-16T03:17:36;101364.81;;;8.52;54.26
50268;BME280;36153;50.960;6.220;2023-02-16T03:20:56;101364.28;;;8.62;54.57
50268;BME280;36153;50.960;6.220;2023-02-16T03:24:21;101353.16;;;8.66;55.13
50268;BME280;36153;50.960;6.220;2023-02-16T03:27:42;101351.25;;;8.61;55.37
50268;BME280;36153;50.960;6.220;2023-02-16T03:31:02;101359.66;;;8.81;54.93
50268;BME280;36153;50.960;6.220;2023-02-16T03:34:04;101364.13;;;8.85;54.71
50268;BME280;36153;50.960;6.220;2023-02-16T03:37:05;101364.25;;;8.88;54.58
50268;BME280;36153;50.960;6.220;2023-02-16T03:40:09;101361.84;;;8.94;54.59
50268;BME280;36153;50.960;6.220;2023-02-16T03:43:28;101358.06;;;8.84;54.79
50268;BME280;36153;50.960;6.220;2023-02-16T03:46:29;101358.53;;;8.73;54.92
50268;BME280;36153;50.960;6.220;2023-02-16T03:49:30;101360.81;;;8.62;55.10
50268;BME280;36153;50.960;6.220;2023-02-16T03:52:30;101354.94;;;8.43;55.72
50268;BME280;36153;50.960;6.220;2023-02-16T03:55:42;101357.03;;;8.52;56.14
50268;BME280;36153;50.960;6.220;2023-02-16T03:58:43;101360.50;;;8.52;55.79
50268;BME280;36153;50.960;6.220;2023-02-16T04:01:43;101355.03;;;8.45;56.15
50268;BME280;36153;50.960;6.220;2023-02-16T04:04:43;101360.34;;;8.48;55.97
50268;BME280;36153;50.960;6.220;2023-02-16T04:07:44;101361.53;;;8.58;55.96
50268;BME280;36153;50.960;6.220;2023-02-16T04:10:44;101360.16;;;8.69;55.77
50268;BME280;36153;50.960;6.220;2023-02-16T04:13:44;101350.75;;;8.73;55.29
50268;BME280;36153;50.960;6.220;2023-02-16T04:16:45;101354.31;;;8.49;55.51
50268;BME280;36153;50.960;6.220;2023-02-16T04:19:45;101349.19;;;8.50;55.71
50268;BME280;36153;50.960;6.220;2023-02-16T04:22:46;101340.59;;;8.53;55.81
50268;BME280;36153;50.960;6.220;2023-02-16T04:25:47;101346.84;;;8.58;55.61
50268;BME280;36153;50.960;6.220;2023-02-16T04:28:47;101350.09;;;8.52;55.62
50268;BME280;36153;50.960;6.220;2023-02-16T04:31:47;101350.66;;;8.44;55.69
50268;BME280;36153;50.960;6.220;2023-02-16T04:34:48;101347.38;;;8.48;55.92
50268;BME280;36153;50.960;6.220;2023-02-16T04:37:49;101356.38;;;8.59;55.97
50268;BME280;36153;50.960;6.220;2023-02-16T04:40:49;101350.47;;;8.63;56.11
50268;BME280;36153;50.960;6.220;2023-02-16T04:43:49;101347.09;;;8.66;55.77
50268;BME280;36153;50.960;6.220;2023-02-16T04:46:50;101344.38;;;8.63;55.68
50268;BME280;36153;50.960;6.220;2023-02-16T04:49:50;101353.13;;;8.65;56.08
50268;BME280;36153;50.960;6.220;2023-02-16T04:52:51;101352.78;;;8.81;55.94
50268;BME280;36153;50.960;6.220;2023-02-16T04:55:51;101351.75;;;9.03;55.36
50268;BME280;36153;50.960;6.220;2023-02-16T04:58:51;101355.53;;;9.13;55.39
50268;BME280;36153;50.960;6.220;2023-02-16T05:01:52;101360.94;;;9.21;54.96
50268;BME280;36153;50.960;6.220;2023-02-16T05:04:52;101350.59;;;9.22;55.26
50268;BME280;36153;50.960;6.220;2023-02-16T05:07:52;101348.53;;;9.39;54.81
50268;BME280;36153;50.960;6.220;2023-02-16T05:10:53;101357.44;;;9.48;54.76
50268;BME280;36153;50.960;6.220;2023-02-16T05:14:19;101354.44;;;9.64;54.75
50268;BME280;36153;50.960;6.220;2023-02-16T05:17:38;101355.66;;;9.76;54.32
50268;BME280;36153;50.960;6.220;2023-02-16T05:20:38;101351.63;;;9.87;54.06
50268;BME280;36153;50.960;6.220;2023-02-16T05:23:58;101347.31;;;9.89;53.47
50268;BME280;36153;50.960;6.220;2023-02-16T05:26:59;101346.38;;;9.85;53.95
50268;BME280;36153;50.960;6.220;2023-02-16T05:29:59;101334.13;;;10.13;53.44
50268;BME280;36153;50.960;6.220;2023-02-16T05:33:00;101341.28;;;10.22;54.08
50268;BME280;36153;50.960;6.220;2023-02-16T05:36:00;101345.13;;;10.35;53.27
50268;BME280;36153;50.960;6.220;2023-02-16T05:39:01;101345.06;;;10.33;53.60
50268;BME280;36153;50.960;6.220;2023-02-16T05:42:01;101346.00;;;10.35;53.57
50268;BME280;36153;50.960;6.220;2023-02-16T05:45:01;101353.97;;;10.41;53.57
50268;BME280;36153;50.960;6.220;2023-02-16T05:48:02;101354.09;;;10.46;53.41
50268;BME280;36153;50.960;6.220;2023-02-16T05:51:03;101351.38;;;10.41;53.78
50268;BME280;36153;50.960;6.220;2023-02-16T05:54:04;101346.56;;;10.57;53.48
50268;BME280;36153;50.960;6.220;2023-02-16T05:57:04;101347.59;;;10.64;53.65
50268;BME280;36153;50.960;6.220;2023-02-16T06:00:05;101345.88;;;10.66;53.35
50268;BME280;36153;50.960;6.220;2023-02-16T06:03:05;101353.91;;;10.73;53.18
50268;BME280;36153;50.960;6.220;2023-02-16T06:06:06;101344.22;;;10.68;53.38
50268;BME280;36153;50.960;6.220;2023-02-16T06:09:07;101345.16;;;10.71;53.32
50268;BME280;36153;50.960;6.220;2023-02-16T06:12:08;101361.69;;;10.72;53.58
50268;BME280;36153;50.960;6.220;2023-02-16T06:15:08;101362.72;;;10.79;53.43
50268;BME280;36153;50.960;6.220;2023-02-16T06:18:09;101355.88;;;10.84;53.34
50268;BME280;36153;50.960;6.220;2023-02-16T06:21:10;101356.09;;;10.93;52.75
50268;BME280;36153;50.960;6.220;2023-02-16T06:24:12;101356.91;;;10.90;52.91
50268;BME280;36153;50.960;6.220;2023-02-16T06:27:12;101354.34;;;10.92;52.76
50268;BME280;36153;50.960;6.220;2023-02-16T06:30:12;101342.28;;;10.96;52.84
50268;BME280;36153;50.960;6.220;2023-02-16T06:33:13;101342.16;;;10.91;52.82
50268;BME280;36153;50.960;6.220;2023-02-16T06:36:14;101348.25;;;10.91;52.96
50268;BME280;36153;50.960;6.220;2023-02-16T06:39:14;101338.94;;;11.01;52.68
50268;BME280;36153;50.960;6.220;2023-02-16T06:42:14;101354.06;;;11.18;52.37
50268;BME280;36153;50.960;6.220;2023-02-16T06:45:15;101358.47;;;11.20;52.38
50268;BME280;36153;50.960;6.220;2023-02-16T06:48:15;101354.41;;;11.33;51.91
50268;BME280;36153;50.960;6.220;2023-02-16T06:51:16;101356.50;;;11.50;51.41
50268;BME280;36153;50.960;6.220;2023-02-16T06:54:17;101351.53;;;11.62;51.00
50268;BME280;36153;50.960;6.220;2023-02-16T06:57:17;101353.22;;;11.58;51.38
50268;BME280;36153;50.960;6.220;2023-02-16T07:00:18;101350.06;;;11.73;51.08
50268;BME280;36153;50.960;6.220;2023-02-16T07:03:18;101350.94;;;11.75;50.84
50268;BME280;36153;50.960;6.220;2023-02-16T07:06:19;101349.19;;;11.74;51.18
50268;BME280;36153;50.960;6.220;2023-02-16T07:09:20;101361.31;;;11.72;51.46
50268;BME280;36153;50.960;6.220;2023-02-16T07:12:20;101347.53;;;11.78;51.40
50268;BME280;36153;50.960;6.220;2023-02-16T07:15:20;101353.56;;;11.75;51.21
50268;BME280;36153;50.960;6.220;2023-02-16T07:18:21;101356.88;;;11.67;51.54
50268;BME280;36153;50.960;6.220;2023-02-16T07:21:21;101357.84;;;11.72;51.30
50268;BME280;36153;50.960;6.220;2023-02-16T07:24:21;101361.06;;;11.60;51.69
50268;BME280;36153;50.960;6.220;2023-02-16T07:27:22;101362.84;;;11.61;51.75
50268;BME280;36153;50.960;6.220;2023-02-16T07:30:23;101357.72;;;11.67;51.61
50268;BME280;36153;50.960;6.220;2023-02-16T07:33:23;101359.69;;;11.77;51.94
50268;BME280;36153;50.960;6.220;2023-02-16T07:36:23;101362.72;;;11.98;51.56
50268;BME280;36153;50.960;6.220;2023-02-16T07:39:24;101356.69;;;12.00;51.18
50268;BME280;36153;50.960;6.220;2023-02-16T07:42:28;101376.09;;;12.15;51.30
50268;BME280;36153;50.960;6.220;2023-02-16T07:45:29;101371.81;;;12.18;50.97
50268;BME280;36153;50.960;6.220;2023-02-16T07:48:32;101378.63;;;12.10;51.10
50268;BME280;36153;50.960;6.220;2023-02-16T07:51:32;101378.03;;;12.25;50.96
50268;BME280;36153;50.960;6.220;2023-02-16T07:54:32;101379.25;;;12.44;50.43
50268;BME280;36153;50.960;6.220;2023-02-16T07:57:33;101378.75;;;12.65;50.31
50268;BME280;36153;50.960;6.220;2023-02-16T08:00:34;101377.41;;;12.89;50.13
50268;BME280;36153;50.960;6.220;2023-02-16T08:03:34;101383.69;;;13.02;50.08
50268;BME280;36153;50.960;6.220;2023-02-16T08:06:34;101374.06;;;12.99;49.77
50268;BME280;36153;50.960;6.220;2023-02-16T08:09:35;101376.56;;;12.93;49.69
50268;BME280;36153;50.960;6.220;2023-02-16T08:12:36;101381.41;;;12.68;50.23
50268;BME280;36153;50.960;6.220;2023-02-16T08:15:36;101386.28;;;13.00;49.26
50268;BME280;36153;50.960;6.220;2023-02-16T08:18:37;101380.19;;;13.01;49.34
50268;BME280;36153;50.960;6.220;2023-02-16T08:21:38;101389.97;;;13.14;49.36
50268;BME280;36153;50.960;6.220;2023-02-16T08:24:38;101391.19;;;13.35;49.45
50268;BME280;36153;50.960;6.220;2023-02-16T08:27:39;101380.03;;;13.48;49.31
50268;BME280;36153;50.960;6.220;2023-02-16T08:30:39;101383.59;;;13.54;49.67
50268;BME280;36153;50.960;6.220;2023-02-16T08:33:40;101386.38;;;13.66;49.25
50268;BME280;36153;50.960;6.220;2023-02-16T08:36:43;101379.63;;;13.83;48.74
50268;BME280;36153;50.960;6.220;2023-02-16T08:39:46;101379.16;;;14.22;49.03
50268;BME280;36153;50.960;6.220;2023-02-16T08:42:48;101377.50;;;14.30;48.42
50268;BME280;36153;50.960;6.220;2023-02-16T08:45:48;101370.78;;;14.57;48.28
50268;BME280;36153;50.960;6.220;2023-02-16T08:48:48;101363.00;;;14.63;48.42
50268;BME280;36153;50.960;6.220;2023-02-16T08:51:51;101366.59;;;14.74;47.94
50268;BME280;36153;50.960;6.220;2023-02-16T08:54:52;101373.59;;;14.75;47.75
50268;BME280;36153;50.960;6.220;2023-02-16T08:57:53;101366.44;;;14.60;48.00
50268;BME280;36153;50.960;6.220;2023-02-16T09:00:53;101370.06;;;14.68;48.28
50268;BME280;36153;50.960;6.220;2023-02-16T09:03:54;101381.41;;;14.72;48.49
50268;BME280;36153;50.960;6.220;2023-02-16T09:06:55;101378.00;;;14.81;48.09
50268;BME280;36153;50.960;6.220;2023-02-16T09:09:57;101379.75;;;14.80;48.67
50268;BME280;36153;50.960;6.220;2023-02-16T09:12:57;101380.69;;;14.87;48.70
50268;BME280;36153;50.960;6.220;2023-02-16T09:16:18;101387.88;;;15.17;48.49
50268;BME280;36153;50.960;6.220;2023-02-16T09:19:20;101388.63;;;14.98;48.79
50268;BME280;36153;50.960;6.220;2023-02-16T09:22:20;101391.06;;;14.79;49.42
50268;BME280;36153;50.960;6.220;2023-02-16T09:25:21;101399.81;;;14.75;49.58
50268;BME280;36153;50.960;6.220;2023-02-16T09:28:23;101405.06;;;14.78;49.71
50268;BME280;36153;50.960;6.220;2023-02-16T09:31:27;101405.09;;;14.81;49.75
50268;BME280;36153;50.960;6.220;2023-02-16T09:34:28;101411.81;;;14.56;50.37
50268;BME280;36153;50.960;6.220;2023-02-16T09:37:28;101409.50;;;14.84;49.98
50268;BME280;36153;50.960;6.220;2023-02-16T09:40:29;101414.75;;;14.85;49.79
50268;BME280;36153;50.960;6.220;2023-02-16T09:46:37;101417.94;;;14.57;50.80
50268;BME280;36153;50.960;6.220;2023-02-16T09:49:42;101420.06;;;14.95;49.81
50268;BME280;36153;50.960;6.220;2023-02-16T09:55:58;101417.88;;;14.49;49.78
50268;BME280;36153;50.960;6.220;2023-02-16T09:59:10;101424.00;;;14.51;49.85
50268;BME280;36153;50.960;6.220;2023-02-16T10:02:33;101427.63;;;14.64;49.94
50268;BME280;36153;50.960;6.220;2023-02-16T10:09:10;101434.03;;;14.91;49.31
50268;BME280;36153;50.960;6.220;2023-02-16T10:12:15;101432.81;;;14.58;49.61
50268;BME280;36153;50.960;6.220;2023-02-16T10:15:21;101433.59;;;14.47;49.70
50268;BME280;36153;50.960;6.220;2023-02-16T10:18:36;101442.69;;;14.05;50.29
50268;BME280;36153;50.960;6.220;2023-02-16T10:21:43;101433.19;;;14.13;50.47
50268;BME280;36153;50.960;6.220;2023-02-16T10:25:02;101435.91;;;14.20;50.36
50268;BME280;36153;50.960;6.220;2023-02-16T10:28:15;101434.66;;;13.91;50.88
50268;BME280;36153;50.960;6.220;2023-02-16T10:31:38;101432.22;;;14.07;50.73
50268;BME280;36153;50.960;6.220;2023-02-16T10:34:50;101429.50;;;13.96;51.13
50268;BME280;36153;50.960;6.220;2023-02-16T10:38:53;101423.69;;;14.20;50.52
50268;BME280;36153;50.960;6.220;2023-02-16T10:41:30;101420.94;;;14.12;50.65
50268;BME280;36153;50.960;6.220;2023-02-16T10:44:35;101430.25;;;13.87;51.24
50268;BME280;36153;50.960;6.220;2023-02-16T10:47:40;101428.94;;;14.22;50.65
50268;BME280;36153;50.960;6.220;2023-02-16T10:54:18;101410.25;;;14.72;49.57
50268;BME280;36153;50.960;6.220;2023-02-16T10:57:26;101404.13;;;14.70;49.58
50268;BME280;36153;50.960;6.220;2023-02-16T11:00:37;101406.78;;;14.76;49.53
50268;BME280;36153;50.960;6.220;2023-02-16T11:03:46;101409.53;;;14.92;49.36
50268;BME280;36153;50.960;6.220;2023-02-16T11:07:00;101402.50;;;14.88;49.33
50268;BME280;36153;50.960;6.220;2023-02-16T11:10:18;101411.16;;;14.74;49.36
50268;BME280;36153;50.960;6.220;2023-02-16T11:13:33;101402.31;;;14.63;49.49
50268;BME280;36153;50.960;6.220;2023-02-16T11:16:35;101396.25;;;14.70;49.50
50268;BME280;36153;50.960;6.220;2023-02-16T11:19:37;101402.59;;;14.97;49.26
50268;BME280;36153;50.960;6.220;2023-02-16T11:22:38;101398.09;;;14.82;49.22
50268;BME280;36153;50.960;6.220;2023-02-16T11:25:40;101377.31;;;15.07;48.95
50268;BME280;36153;50.960;6.220;2023-02-16T11:28:44;101385.25;;;15.17;48.80
50268;BME280;36153;50.960;6.220;2023-02-16T11:31:45;101395.72;;;15.13;48.96
50268;BME280;36153;50.960;6.220;2023-02-16T11:34:48;101391.25;;;14.99;49.22
50268;BME280;36153;50.960;6.220;2023-02-16T11:37:49;101386.94;;;15.06;49.21
50268;BME280;36153;50.960;6.220;2023-02-16T11:40:51;101386.88;;;15.01;49.35
50268;BME280;36153;50.960;6.220;2023-02-16T11:43:52;101381.53;;;14.84;49.61
50268;BME280;36153;50.960;6.220;2023-02-16T11:46:57;101376.34;;;14.91;49.67
50268;BME280;36153;50.960;6.220;2023-02-16T11:53:33;101370.25;;;14.95;49.76
50268;BME280;36153;50.960;6.220;2023-02-16T11:56:34;101370.19;;;14.85;50.37
50268;BME280;36153;50.960;6.220;2023-02-16T11:59:37;101364.84;;;14.75;50.28
50268;BME280;36153;50.960;6.220;2023-02-16T12:16:35;101369.19;;;14.71;52.20
50268;BME280;36153;50.960;6.220;2023-02-16T12:19:41;101358.66;;;14.68;52.50
50268;BME280;36153;50.960;6.220;2023-02-16T12:22:47;101351.09;;;15.04;51.69
50268;BME280;36153;50.960;6.220;2023-02-16T12:26:12;101354.44;;;14.81;52.00
50268;BME280;36153;50.960;6.220;2023-02-16T12:39:34;101346.13;;;15.59;51.80
50268;BME280;36153;50.960;6.220;2023-02-16T12:42:44;101340.84;;;15.51;51.65
50268;BME280;36153;50.960;6.220;2023-02-16T12:45:47;101328.72;;;15.78;50.68
50268;BME280;36153;50.960;6.220;2023-02-16T12:52:02;101327.78;;;15.61;51.02
50268;BME280;36153;50.960;6.220;2023-02-16T12:55:14;101320.75;;;15.57;51.19
50268;BME280;36153;50.960;6.220;2023-02-16T12:58:20;101318.09;;;15.46;50.91
50268;BME280;36153;50.960;6.220;2023-02-16T13:01:27;101315.38;;;15.26;51.20
50268;BME280;36153;50.960;6.220;2023-02-16T13:04:36;101305.16;;;15.92;50.84
50268;BME280;36153;50.960;6.220;2023-02-16T13:07:39;101299.94;;;16.08;49.78
50268;BME280;36153;50.960;6.220;2023-02-16T13:11:09;101298.19;;;16.27;49.47
50268;BME280;36153;50.960;6.220;2023-02-16T13:14:16;101295.59;;;16.47;49.51
50268;BME280;36153;50.960;6.220;2023-02-16T13:17:23;101286.81;;;16.51;48.67
50268;BME280;36153;50.960;6.220;2023-02-16T13:20:24;101287.69;;;16.73;48.52
50268;BME280;36153;50.960;6.220;2023-02-16T13:23:41;101280.66;;;16.50;48.93
50268;BME280;36153;50.960;6.220;2023-02-16T13:27:35;101285.06;;;16.47;49.05
50268;BME280;36153;50.960;6.220;2023-02-16T13:31:04;101276.28;;;16.69;48.68
50268;BME280;36153;50.960;6.220;2023-02-16T13:44:15;101261.31;;;17.10;48.11
50268;BME280;36153;50.960;6.220;2023-02-16T13:47:22;101256.03;;;17.12;47.50
50268;BME280;36153;50.960;6.220;2023-02-16T13:50:30;101256.09;;;16.95;47.59
50268;BME280;36153;50.960;6.220;2023-02-16T13:53:38;101247.25;;;17.17;47.22
50268;BME280;36153;50.960;6.220;2023-02-16T13:56:40;101234.81;;;17.50;45.98
50268;BME280;36153;50.960;6.220;2023-02-16T13:59:48;101242.69;;;17.56;45.46
50268;BME280;36153;50.960;6.220;2023-02-16T14:02:56;101243.56;;;17.58;46.30
50268;BME280;36153;50.960;6.220;2023-02-16T14:06:36;101240.03;;;17.60;45.12
50268;BME280;36153;50.960;6.220;2023-02-16T14:12:38;101238.34;;;17.52;45.44
50268;BME280;36153;50.960;6.220;2023-02-16T14:15:49;101230.63;;;17.11;45.45
50268;BME280;36153;50.960;6.220;2023-02-16T14:22:10;101231.41;;;17.28;45.35
50268;BME280;36153;50.960;6.220;2023-02-16T14:31:33;101209.50;;;17.29;44.54
50268;BME280;36153;50.960;6.220;2023-02-16T14:34:42;101208.63;;;17.26;44.80
50268;BME280;36153;50.960;6.220;2023-02-16T14:40:58;101205.72;;;17.73;44.23
50268;BME280;36153;50.960;6.220;2023-02-16T14:47:27;101200.59;;;17.56;44.09
50268;BME280;36153;50.960;6.220;2023-02-16T14:54:16;101190.03;;;17.53;43.37
50268;BME280;36153;50.960;6.220;2023-02-16T15:00:42;101187.50;;;17.44;43.24
50268;BME280;36153;50.960;6.220;2023-02-16T15:03:46;101179.50;;;17.53;43.98
50268;BME280;36153;50.960;6.220;2023-02-16T15:06:47;101182.06;;;17.66;43.87
50268;BME280;36153;50.960;6.220;2023-02-16T15:09:49;101177.59;;;17.77;43.71
50268;BME280;36153;50.960;6.220;2023-02-16T15:12:56;101170.91;;;17.33;43.24
50268;BME280;36153;50.960;6.220;2023-02-16T15:15:59;101177.97;;;17.23;43.86
50268;BME280;36153;50.960;6.220;2023-02-16T15:19:07;101171.00;;;17.11;44.03
50268;BME280;36153;50.960;6.220;2023-02-16T15:25:30;101168.31;;;17.17;44.13
50268;BME280;36153;50.960;6.220;2023-02-16T15:28:36;101166.59;;;17.16;44.00
50268;BME280;36153;50.960;6.220;2023-02-16T15:31:37;101161.34;;;17.16;44.07
50268;BME280;36153;50.960;6.220;2023-02-16T15:34:38;101165.69;;;17.16;44.35
50268;BME280;36153;50.960;6.220;2023-02-16T15:37:40;101171.97;;;16.79;45.10
50268;BME280;36153;50.960;6.220;2023-02-16T15:40:40;101181.63;;;16.69;45.61
50268;BME280;36153;50.960;6.220;2023-02-16T15:43:46;101178.13;;;16.72;45.37
50268;BME280;36153;50.960;6.220;2023-02-16T15:46:47;101172.00;;;16.67;45.54
50268;BME280;36153;50.960;6.220;2023-02-16T15:49:47;101177.31;;;16.58;45.55
50268;BME280;36153;50.960;6.220;2023-02-16T15:52:48;101183.47;;;16.40;46.16
50268;BME280;36153;50.960;6.220;2023-02-16T15:55:48;101173.81;;;16.46;46.08
50268;BME280;36153;50.960;6.220;2023-02-16T15:58:50;101179.94;;;16.41;46.04
50268;BME280;36153;50.960;6.220;2023-02-16T16:01:57;101176.47;;;16.40;46.18
50268;BME280;36153;50.960;6.220;2023-02-16T16:05:00;101177.28;;;16.54;46.05
50268;BME280;36153;50.960;6.220;2023-02-16T16:08:02;101172.94;;;16.46;45.92
50268;BME280;36153;50.960;6.220;2023-02-16T16:11:03;101165.88;;;16.62;45.92
50268;BME280;36153;50.960;6.220;2023-02-16T16:14:04;101173.78;;;16.59;46.00
50268;BME280;36153;50.960;6.220;2023-02-16T16:17:11;101166.75;;;16.67;45.99
50268;BME280;36153;50.960;6.220;2023-02-16T16:23:30;101166.84;;;16.22;46.52
50268;BME280;36153;50.960;6.220;2023-02-16T16:26:34;101166.00;;;16.21;46.92
50268;BME280;36153;50.960;6.220;2023-02-16T16:29:42;101169.47;;;16.13;47.14
50268;BME280;36153;50.960;6.220;2023-02-16T16:32:46;101173.00;;;15.90;47.96
50268;BME280;36153;50.960;6.220;2023-02-16T16:35:48;101160.72;;;15.91;47.78
50268;BME280;36153;50.960;6.220;2023-02-16T16:39:13;101162.47;;;15.96;48.00
50268;BME280;36153;50.960;6.220;2023-02-16T16:42:22;101161.63;;;15.80;48.42
50268;BME280;36153;50.960;6.220;2023-02-16T16:45:39;101161.56;;;15.71;48.83
50268;BME280;36153;50.960;6.220;2023-02-16T16:48:43;101169.44;;;15.73;48.94
50268;BME280;36153;50.960;6.220;2023-02-16T16:51:50;101161.56;;;15.62;49.32
50268;BME280;36153;50.960;6.220;2023-02-16T16:54:51;101153.69;;;15.63;49.14
50268;BME280;36153;50.960;6.220;2023-02-16T16:57:53;101156.31;;;15.65;49.34
50268;BME280;36153;50.960;6.220;2023-02-16T17:00:53;101154.53;;;15.45;49.69
50268;BME280;36153;50.960;6.220;2023-02-16T17:03:54;101156.28;;;15.43;49.83
50268;BME280;36153;50.960;6.220;2023-02-16T17:06:55;101153.66;;;15.40;50.03
50268;BME280;36153;50.960;6.220;2023-02-16T17:09:55;101158.00;;;15.26;50.01
50268;BME280;36153;50.960;6.220;2023-02-16T17:12:57;101161.53;;;15.43;49.89
50268;BME280;36153;50.960;6.220;2023-02-16T17:16:10;101165.91;;;15.40;50.08
50268;BME280;36153;50.960;6.220;2023-02-16T17:19:14;101166.78;;;15.56;49.72
50268;BME280;36153;50.960;6.220;2023-02-16T17:22:17;101171.13;;;15.30;49.98
50268;BME280;36153;50.960;6.220;2023-02-16T17:25:18;101162.41;;;15.41;49.64
50268;BME280;36153;50.960;6.220;2023-02-16T17:28:19;101168.53;;;15.44;49.75
50268;BME280;36153;50.960;6.220;2023-02-16T17:31:19;101173.81;;;15.58;49.29
50268;BME280;36153;50.960;6.220;2023-02-16T17:34:19;101159.75;;;15.30;49.51
50268;BME280;36153;50.960;6.220;2023-02-16T17:37:20;101165.91;;;15.38;49.24
50268;BME280;36153;50.960;6.220;2023-02-16T17:40:22;101168.53;;;15.41;49.17
50268;BME280;36153;50.960;6.220;2023-02-16T17:43:24;101161.50;;;15.31;49.49
50268;BME280;36153;50.960;6.220;2023-02-16T17:46:24;101164.97;;;15.22;49.75
50268;BME280;36153;50.960;6.220;2023-02-16T17:49:26;101168.50;;;15.29;49.39
50268;BME280;36153;50.960;6.220;2023-02-16T17:52:26;101174.56;;;15.14;49.23
50268;BME280;36153;50.960;6.220;2023-02-16T17:55:27;101176.31;;;15.19;49.19
50268;BME280;36153;50.960;6.220;2023-02-16T17:58:27;101191.88;;;14.75;50.11